Time;durP1;ratioP1;P1;durP2;ratioP2;P2;SDS_P1;SDS_P2;PMS_P1;PMS_P2;Temp;Humidity;BMP_temperature;BMP_pressure;BME280_temperature;BME280_humidity;BME280_pressure;Samples;Min_cycle;Max_cycle;Signal;HPM_P1;HPM_P2
2021/12/08 00:01:07;;;;;;;15.82;8.43;;;;;;;;;;4838819;29;20058;-74
2021/12/08 00:03:34;;;;;;;12.80;7.30;;;;;;;;;;4837987;29;20068;-75
2021/12/08 00:06:00;;;;;;;10.85;6.38;;;;;;;;;;4838524;29;20473;-75
2021/12/08 00:08:28;;;;;;;13.93;7.40;;;;;;;;;;4831249;29;20436;-75
2021/12/08 00:13:25;;;;;;;31.98;15.55;;;;;;;;;;4826669;29;20049;-75
2021/12/08 00:15:53;;;;;;;21.60;11.07;;;;;;;;;;4842162;29;20038;-75
2021/12/08 00:18:22;;;;;;;14.50;7.78;;;;;;;;;;4838648;29;20082;-75
2021/12/08 00:20:51;;;;;;;17.88;8.93;;;;;;;;;;4823558;29;20039;-75
2021/12/08 00:23:17;;;;;;;16.20;7.30;;;;;;;;;;4823526;29;20030;-75
2021/12/08 00:25:44;;;;;;;10.63;4.72;;;;;;;;;;4841881;29;20234;-75
2021/12/08 00:28:10;;;;;;;12.45;6.22;;;;;;;;;;4841716;29;20062;-75
2021/12/08 00:30:37;;;;;;;15.27;6.45;;;;;;;;;;4841259;29;20034;-75
2021/12/08 00:33:04;;;;;;;10.98;6.65;;;;;;;;;;4841551;29;20045;-75
2021/12/08 00:35:30;;;;;;;11.13;5.72;;;;;;;;;;4841441;29;20042;-75
2021/12/08 00:37:57;;;;;;;11.23;5.30;;;;;;;;;;4838877;29;20042;-75
2021/12/08 00:40:24;;;;;;;7.53;2.60;;;;;;;;;;4835156;29;20041;-75
2021/12/08 00:42:50;;;;;;;9.32;4.30;;;;;;;;;;4841615;29;20038;-75
2021/12/08 00:45:17;;;;;;;6.03;1.65;;;;;;;;;;4831083;29;20071;-75
2021/12/08 00:47:44;;;;;;;3.83;1.27;;;;;;;;;;4823208;29;20042;-74
2021/12/08 00:50:11;;;;;;;13.98;5.00;;;;;;;;;;4822378;29;20045;-76
2021/12/08 00:52:37;;;;;;;7.88;3.97;;;;;;;;;;4822878;29;20034;-75
2021/12/08 00:55:07;;;;;;;11.20;5.00;;;;;;;;;;4828446;29;20272;-75
2021/12/08 00:57:33;;;;;;;13.20;6.13;;;;;;;;;;4841026;29;20041;-75
2021/12/08 01:00:01;;;;;;;14.52;6.22;;;;;;;;;;4833005;29;20061;-75
2021/12/08 01:02:28;;;;;;;9.25;4.00;;;;;;;;;;4826789;29;20030;-75
2021/12/08 01:04:54;;;;;;;13.18;4.35;;;;;;;;;;4841021;29;20046;-75
2021/12/08 01:07:20;;;;;;;10.02;3.50;;;;;;;;;;4841202;29;20030;-75
2021/12/08 01:09:47;;;;;;;7.25;2.67;;;;;;;;;;4840326;29;20034;-75
2021/12/08 01:12:13;;;;;;;11.98;4.32;;;;;;;;;;4840915;29;20034;-75
2021/12/08 01:14:39;;;;;;;16.33;5.60;;;;;;;;;;4837625;29;20597;-75
2021/12/08 01:17:05;;;;;;;10.45;4.35;;;;;;;;;;4840940;29;20135;-75
2021/12/08 01:19:31;;;;;;;12.80;5.20;;;;;;;;;;4839814;29;20069;-75
2021/12/08 01:21:58;;;;;;;13.23;4.93;;;;;;;;;;4841015;29;20475;-75
2021/12/08 01:24:24;;;;;;;21.27;7.22;;;;;;;;;;4837823;29;20033;-75
2021/12/08 01:26:50;;;;;;;13.20;4.95;;;;;;;;;;4840736;29;20496;-75
2021/12/08 01:29:16;;;;;;;9.27;4.35;;;;;;;;;;4834316;29;20039;-75
2021/12/08 01:31:44;;;;;;;12.63;4.90;;;;;;;;;;4837226;29;20038;-74
2021/12/08 01:34:10;;;;;;;15.55;5.95;;;;;;;;;;4839551;29;20033;-75
2021/12/08 01:36:37;;;;;;;9.95;3.00;;;;;;;;;;4840492;29;20042;-75
2021/12/08 01:39:06;;;;;;;6.88;2.22;;;;;;;;;;4839819;29;20046;-76
2021/12/08 01:41:33;;;;;;;7.35;3.22;;;;;;;;;;4840554;29;20044;-75
2021/12/08 01:46:44;;;;;;;12.75;6.32;;;;;;;;;;4822467;29;20095;-75
2021/12/08 01:49:10;;;;;;;15.77;8.10;;;;;;;;;;4829504;29;20041;-75
2021/12/08 01:51:36;;;;;;;12.25;5.65;;;;;;;;;;4839693;29;20045;-75
2021/12/08 01:54:04;;;;;;;8.85;4.95;;;;;;;;;;4840324;29;20137;-75
2021/12/08 01:56:32;;;;;;;13.20;6.70;;;;;;;;;;4824604;29;20038;-75
2021/12/08 01:58:58;;;;;;;10.98;5.28;;;;;;;;;;4822213;29;20086;-75
2021/12/08 02:01:26;;;;;;;8.57;4.20;;;;;;;;;;4834881;29;20161;-74
2021/12/08 02:03:52;;;;;;;11.07;3.90;;;;;;;;;;4840032;29;20126;-75
2021/12/08 02:06:19;;;;;;;6.47;1.60;;;;;;;;;;4839331;29;20033;-75
2021/12/08 02:08:45;;;;;;;5.28;2.55;;;;;;;;;;4840265;29;20034;-75
2021/12/08 02:11:11;;;;;;;8.30;3.85;;;;;;;;;;4839899;29;20030;-74
2021/12/08 02:13:39;;;;;;;13.07;5.78;;;;;;;;;;4840199;29;20106;-75
2021/12/08 02:16:08;;;;;;;14.95;5.70;;;;;;;;;;4839638;29;20030;-74
2021/12/08 02:18:34;;;;;;;40.25;13.55;;;;;;;;;;4839960;29;20038;-75
2021/12/08 02:21:01;;;;;;;25.70;9.30;;;;;;;;;;4839267;29;20033;-75
2021/12/08 02:23:27;;;;;;;14.98;5.65;;;;;;;;;;4821333;29;20045;-75
2021/12/08 02:25:53;;;;;;;14.93;5.68;;;;;;;;;;4823946;29;20461;-75
2021/12/08 02:28:19;;;;;;;18.33;7.25;;;;;;;;;;4839567;29;20112;-75
2021/12/08 02:30:55;;;;;;;18.90;6.07;;;;;;;;;;4838638;29;20040;-75
2021/12/08 02:47:29;;;;;;;19.45;7.75;;;;;;;;;;4839729;29;20163;-75
2021/12/08 02:49:55;;;;;;;13.90;6.88;;;;;;;;;;4839056;29;20045;-75
2021/12/08 02:52:22;;;;;;;9.90;4.65;;;;;;;;;;4838902;29;20068;-75
2021/12/08 02:54:49;;;;;;;8.73;4.47;;;;;;;;;;4838299;29;20042;-75
2021/12/08 02:57:16;;;;;;;9.27;3.85;;;;;;;;;;4836856;29;20041;-75
2021/12/08 02:59:43;;;;;;;7.65;3.10;;;;;;;;;;4833843;29;20149;-75
2021/12/08 03:02:10;;;;;;;6.25;3.28;;;;;;;;;;4839318;29;20460;-76
2021/12/08 03:04:36;;;;;;;9.13;4.65;;;;;;;;;;4832847;29;20045;-75
2021/12/08 03:07:02;;;;;;;10.93;4.00;;;;;;;;;;4839298;29;20069;-75
2021/12/08 03:09:28;;;;;;;9.68;4.20;;;;;;;;;;4838468;29;20109;-76
2021/12/08 03:11:56;;;;;;;17.52;6.53;;;;;;;;;;4839338;29;20034;-75
2021/12/08 03:14:22;;;;;;;10.60;4.25;;;;;;;;;;4826575;29;20084;-75
2021/12/08 03:16:49;;;;;;;5.22;1.67;;;;;;;;;;4829704;29;20392;-75
2021/12/08 03:19:16;;;;;;;7.35;2.63;;;;;;;;;;4821028;29;20041;-75
2021/12/08 03:21:43;;;;;;;9.48;3.78;;;;;;;;;;4820940;29;20045;-75
2021/12/08 03:29:26;;;;;;;4.28;1.52;;;;;;;;;;4839194;29;20086;-75
2021/12/08 03:31:54;;;;;;;16.10;5.18;;;;;;;;;;4839371;29;20033;-75
2021/12/08 03:34:23;;;;;;;22.45;5.93;;;;;;;;;;4839337;29;20404;-75
2021/12/08 03:36:49;;;;;;;7.97;3.28;;;;;;;;;;4831756;29;20066;-75
2021/12/08 03:39:15;;;;;;;9.20;3.20;;;;;;;;;;4837286;29;20060;-75
2021/12/08 03:41:41;;;;;;;9.35;2.95;;;;;;;;;;4839120;29;20065;-75
2021/12/08 03:44:08;;;;;;;2.00;0.98;;;;;;;;;;4839143;29;20065;-76
2021/12/08 03:46:39;;;;;;;4.97;1.40;;;;;;;;;;4839000;29;20063;-75
2021/12/08 03:49:09;;;;;;;6.18;1.65;;;;;;;;;;4827444;29;20030;-75
2021/12/08 03:51:35;;;;;;;8.95;3.17;;;;;;;;;;4842348;29;20051;-75
2021/12/08 03:54:01;;;;;;;10.15;5.28;;;;;;;;;;4842356;29;20045;-75
2021/12/08 03:56:28;;;;;;;11.05;4.97;;;;;;;;;;4842267;29;20042;-75
2021/12/08 03:58:54;;;;;;;15.68;6.80;;;;;;;;;;4842528;29;20116;-75
2021/12/08 04:01:20;;;;;;;14.23;7.53;;;;;;;;;;4828777;29;20175;-75
2021/12/08 04:03:50;;;;;;;11.02;6.47;;;;;;;;;;4841126;29;20041;-75
2021/12/08 04:06:29;;;;;;;10.75;5.50;;;;;;;;;;4824832;29;20129;-75
2021/12/08 04:08:56;;;;;;;10.15;5.43;;;;;;;;;;4824076;29;20071;-75
2021/12/08 04:11:23;;;;;;;7.45;4.45;;;;;;;;;;4823745;29;20946;-75
2021/12/08 04:13:51;;;;;;;4.20;0.88;;;;;;;;;;4823822;29;20034;-76
2021/12/08 04:16:20;;;;;;;2.58;0.68;;;;;;;;;;4823967;29;20042;-75
2021/12/08 04:18:46;;;;;;;1.92;0.60;;;;;;;;;;4825409;29;20039;-75
2021/12/08 04:21:12;;;;;;;1.98;0.85;;;;;;;;;;4842604;29;20799;-75
2021/12/08 04:23:40;;;;;;;3.67;1.52;;;;;;;;;;4828472;29;20042;-75
2021/12/08 04:26:11;;;;;;;2.78;1.10;;;;;;;;;;4827074;29;20532;-75
2021/12/08 04:28:37;;;;;;;2.92;1.25;;;;;;;;;;4842122;29;20058;-75
2021/12/08 04:31:18;;;;;;;2.65;1.02;;;;;;;;;;4842466;29;20426;-75
2021/12/08 04:33:52;;;;;;;4.10;0.60;;;;;;;;;;4841749;29;20511;-75
2021/12/08 04:36:18;;;;;;;4.00;1.40;;;;;;;;;;4838955;29;20560;-75
2021/12/08 04:38:49;;;;;;;2.28;0.88;;;;;;;;;;4836820;29;20034;-76
2021/12/08 04:41:19;;;;;;;5.05;1.70;;;;;;;;;;4838755;29;20037;-75
2021/12/08 04:44:09;;;;;;;7.55;4.72;;;;;;;;;;4836992;29;20029;-75
2021/12/08 04:46:57;;;;;;;13.95;6.50;;;;;;;;;;4825214;29;20137;-75
2021/12/08 04:50:03;;;;;;;5.75;3.55;;;;;;;;;;4826486;29;20041;-75
2021/12/08 04:52:25;;;;;;;5.75;2.58;;;;;;;;;;4839712;29;20432;-75
2021/12/08 05:06:06;;;;;;;3.20;0.90;;;;;;;;;;4831728;29;20073;-75
2021/12/08 05:08:43;;;;;;;1.50;0.80;;;;;;;;;;4840894;29;20030;-75
2021/12/08 05:11:12;;;;;;;4.28;1.10;;;;;;;;;;4834438;29;20443;-76
2021/12/08 05:13:39;;;;;;;2.08;0.70;;;;;;;;;;4830436;29;20871;-75
2021/12/08 05:16:05;;;;;;;2.22;0.90;;;;;;;;;;4840585;29;20037;-75
2021/12/08 05:18:35;;;;;;;3.65;1.70;;;;;;;;;;4840886;29;20037;-76
2021/12/08 05:21:10;;;;;;;4.30;1.80;;;;;;;;;;4840162;29;20052;-75
2021/12/08 05:23:36;;;;;;;6.07;1.65;;;;;;;;;;4842832;29;20510;-75
2021/12/08 05:26:07;;;;;;;4.88;1.63;;;;;;;;;;4856504;29;20118;-75
2021/12/08 05:28:34;;;;;;;6.72;2.65;;;;;;;;;;4858858;29;20563;-75
2021/12/08 05:31:10;;;;;;;8.38;3.50;;;;;;;;;;4859241;29;20034;-75
2021/12/08 05:33:36;;;;;;;8.30;3.60;;;;;;;;;;4845116;29;20045;-75
2021/12/08 05:36:03;;;;;;;5.35;2.63;;;;;;;;;;4833403;29;20043;-75
2021/12/08 05:38:29;;;;;;;10.77;5.70;;;;;;;;;;4832541;29;20030;-75
2021/12/08 05:41:09;;;;;;;16.70;7.78;;;;;;;;;;4826613;29;20057;-76
2021/12/08 05:43:36;;;;;;;16.65;9.07;;;;;;;;;;4823000;29;20045;-75
2021/12/08 05:46:02;;;;;;;12.85;7.78;;;;;;;;;;4840922;29;20158;-75
2021/12/08 05:48:30;;;;;;;12.88;8.70;;;;;;;;;;4836169;29;20619;-75
2021/12/08 05:51:04;;;;;;;12.75;8.68;;;;;;;;;;4832320;29;20037;-75
2021/12/08 05:53:31;;;;;;;13.73;9.10;;;;;;;;;;4835820;29;20037;-75
2021/12/08 05:55:57;;;;;;;13.35;8.43;;;;;;;;;;4838433;29;20033;-75
2021/12/08 05:58:25;;;;;;;9.02;5.00;;;;;;;;;;4840274;29;20069;-75
2021/12/08 06:00:57;;;;;;;7.05;2.58;;;;;;;;;;4839197;29;20485;-75
2021/12/08 06:03:23;;;;;;;8.18;4.40;;;;;;;;;;4829138;29;20050;-75
2021/12/08 06:05:51;;;;;;;10.32;1.92;;;;;;;;;;4835948;29;20053;-75
2021/12/08 06:08:17;;;;;;;5.60;1.38;;;;;;;;;;4840179;29;20038;-75
2021/12/08 06:10:43;;;;;;;1.77;0.85;;;;;;;;;;4838974;29;20491;-75
2021/12/08 06:13:10;;;;;;;3.88;0.82;;;;;;;;;;4840066;29;20065;-76
2021/12/08 06:15:37;;;;;;;3.33;1.52;;;;;;;;;;4828754;29;20034;-76
2021/12/08 06:18:03;;;;;;;4.32;2.65;;;;;;;;;;4833159;29;20038;-75
2021/12/08 06:20:29;;;;;;;6.88;2.40;;;;;;;;;;4817356;29;20064;-75
2021/12/08 06:22:57;;;;;;;6.45;3.03;;;;;;;;;;4838659;29;20809;-75
2021/12/08 06:25:23;;;;;;;6.40;2.10;;;;;;;;;;4834939;29;20463;-75
2021/12/08 06:27:49;;;;;;;8.57;4.28;;;;;;;;;;4825363;29;20041;-75
2021/12/08 06:30:17;;;;;;;11.63;5.95;;;;;;;;;;4839160;29;20034;-75
2021/12/08 06:32:43;;;;;;;7.90;4.40;;;;;;;;;;4838581;29;20050;-75
2021/12/08 06:35:11;;;;;;;8.63;2.45;;;;;;;;;;4837474;29;20034;-76
2021/12/08 06:37:39;;;;;;;9.40;5.13;;;;;;;;;;4831053;29;20798;-75
2021/12/08 06:40:05;;;;;;;11.23;7.15;;;;;;;;;;4821606;29;20034;-75
2021/12/08 06:42:33;;;;;;;10.27;6.90;;;;;;;;;;4831748;29;20053;-75
2021/12/08 06:45:00;;;;;;;13.68;10.77;;;;;;;;;;4839020;29;20034;-75
2021/12/08 06:47:28;;;;;;;16.08;6.32;;;;;;;;;;4839238;29;20042;-75
2021/12/08 06:49:55;;;;;;;9.80;2.33;;;;;;;;;;4838702;29;20034;-75
2021/12/08 06:52:24;;;;;;;3.55;1.13;;;;;;;;;;4836398;29;20102;-75
2021/12/08 06:54:56;;;;;;;3.47;0.95;;;;;;;;;;4834795;29;20038;-75
2021/12/08 06:57:23;;;;;;;;;;;;;;;;;;4821271;29;20038;-75
2021/12/08 07:00:34;;;;;;;7.88;3.63;;;;;;;;;;4820183;29;19946;-75
2021/12/08 07:05:26;;;;;;;5.53;2.17;;;;;;;;;;4835148;29;20133;-75
2021/12/08 07:07:53;;;;;;;4.55;1.30;;;;;;;;;;4834761;29;20773;-76
2021/12/08 07:10:24;;;;;;;3.88;1.60;;;;;;;;;;4831281;29;20037;-75
2021/12/08 07:12:56;;;;;;;2.37;0.90;;;;;;;;;;4836342;29;20037;-75
2021/12/08 07:15:22;;;;;;;2.10;0.70;;;;;;;;;;4835801;29;20061;-75
2021/12/08 07:17:51;;;;;;;4.20;0.90;;;;;;;;;;4822203;29;20561;-76
2021/12/08 07:23:05;;;;;;;2.63;0.60;;;;;;;;;;4822860;29;20106;-75
2021/12/08 07:25:33;;;;;;;3.05;0.70;;;;;;;;;;4820619;29;20080;-75
2021/12/08 07:27:59;;;;;;;4.50;1.10;;;;;;;;;;4836011;29;20026;-75
2021/12/08 07:30:28;;;;;;;4.53;0.60;;;;;;;;;;4822556;29;20038;-75
2021/12/08 07:32:54;;;;;;;3.70;0.98;;;;;;;;;;4828849;29;20061;-76
2021/12/08 07:35:32;;;;;;;3.00;0.70;;;;;;;;;;4835886;29;20062;-75
2021/12/08 07:37:58;;;;;;;3.38;0.77;;;;;;;;;;4832328;29;20060;-75
2021/12/08 07:40:27;;;;;;;2.95;0.85;;;;;;;;;;4837455;29;20524;-75
2021/12/08 07:42:56;;;;;;;5.35;0.70;;;;;;;;;;4838138;29;20038;-75
2021/12/08 07:45:24;;;;;;;4.10;1.23;;;;;;;;;;4838658;29;20041;-75
2021/12/08 07:47:51;;;;;;;6.65;3.67;;;;;;;;;;4837046;29;20091;-75
2021/12/08 07:50:41;;;;;;;8.70;2.55;;;;;;;;;;4838322;29;20026;-75
2021/12/08 07:53:09;;;;;;;2.65;1.08;;;;;;;;;;4826107;29;20058;-75
2021/12/08 07:55:37;;;;;;;4.07;1.33;;;;;;;;;;4838949;29;20083;-76
2021/12/08 07:58:04;;;;;;;8.10;1.77;;;;;;;;;;4835203;29;20045;-75
2021/12/08 08:00:33;;;;;;;6.18;2.47;;;;;;;;;;4827659;29;20075;-75
2021/12/08 08:03:00;;;;;;;8.68;2.33;;;;;;;;;;4821968;29;20046;-75
2021/12/08 08:05:28;;;;;;;6.15;2.40;;;;;;;;;;4838713;29;20067;-76
2021/12/08 08:07:56;;;;;;;5.90;2.25;;;;;;;;;;4837133;29;20045;-75
2021/12/08 08:10:23;;;;;;;6.95;2.28;;;;;;;;;;4820711;29;20396;-76
2021/12/08 08:12:51;;;;;;;5.53;2.75;;;;;;;;;;4833007;29;20943;-75
2021/12/08 08:15:22;;;;;;;6.70;2.22;;;;;;;;;;4821193;29;20045;-76
2021/12/08 08:17:51;;;;;;;7.45;2.65;;;;;;;;;;4836306;29;20038;-75
2021/12/08 08:20:20;;;;;;;10.25;4.65;;;;;;;;;;4838110;29;20053;-75
2021/12/08 08:22:47;;;;;;;9.75;3.95;;;;;;;;;;4838750;29;20085;-76
2021/12/08 08:25:14;;;;;;;13.57;5.57;;;;;;;;;;4838918;29;20042;-75
2021/12/08 08:27:40;;;;;;;12.23;5.47;;;;;;;;;;4837434;29;20484;-76
2021/12/08 08:30:09;;;;;;;11.05;5.40;;;;;;;;;;4830481;29;20035;-75
2021/12/08 08:32:37;;;;;;;9.77;5.00;;;;;;;;;;4825295;29;20038;-75
2021/12/08 08:35:12;;;;;;;15.80;9.23;;;;;;;;;;4835574;29;20044;-76
2021/12/08 08:37:38;;;;;;;23.73;12.45;;;;;;;;;;4829448;29;20053;-75
2021/12/08 08:40:08;;;;;;;23.30;12.93;;;;;;;;;;4833667;29;20042;-75
2021/12/08 08:42:37;;;;;;;22.83;12.40;;;;;;;;;;4823518;29;20049;-75
2021/12/08 08:45:03;;;;;;;21.08;12.65;;;;;;;;;;4830290;29;20034;-75
2021/12/08 08:47:31;;;;;;;23.55;12.35;;;;;;;;;;4840181;29;20393;-75
2021/12/08 08:49:58;;;;;;;31.30;15.13;;;;;;;;;;4840717;29;20026;-76
2021/12/08 08:52:27;;;;;;;23.48;8.13;;;;;;;;;;4841653;29;20084;-75
2021/12/08 08:54:55;;;;;;;16.27;8.20;;;;;;;;;;4834654;29;20044;-76
2021/12/08 08:57:23;;;;;;;18.30;10.10;;;;;;;;;;4824856;29;20068;-75
2021/12/08 08:59:58;;;;;;;13.38;6.57;;;;;;;;;;4840515;29;20042;-75
2021/12/08 09:02:30;;;;;;;13.00;7.88;;;;;;;;;;4835946;29;20050;-76
2021/12/08 09:05:00;;;;;;;16.10;7.57;;;;;;;;;;4837607;29;20389;-75
2021/12/08 09:07:35;;;;;;;14.13;7.40;;;;;;;;;;4826036;29;20034;-75
2021/12/08 09:10:05;;;;;;;15.02;7.10;;;;;;;;;;4838025;29;20045;-75
2021/12/08 09:12:36;;;;;;;11.82;5.72;;;;;;;;;;4829554;29;20385;-76
2021/12/08 09:15:08;;;;;;;16.13;9.73;;;;;;;;;;4836045;29;20045;-76
2021/12/08 09:17:41;;;;;;;18.40;11.27;;;;;;;;;;4835159;29;20041;-75
2021/12/08 09:20:13;;;;;;;14.93;6.10;;;;;;;;;;4828471;29;20038;-75
2021/12/08 09:22:41;;;;;;;11.90;5.78;;;;;;;;;;4829674;29;20046;-76
2021/12/08 09:25:07;;;;;;;10.65;5.40;;;;;;;;;;4839321;29;20038;-75
2021/12/08 09:27:36;;;;;;;21.42;10.80;;;;;;;;;;4822530;29;20049;-76
2021/12/08 09:30:08;;;;;;;19.30;12.77;;;;;;;;;;4832733;29;20038;-75
2021/12/08 09:32:40;;;;;;;21.33;14.10;;;;;;;;;;4834771;29;20100;-75
2021/12/08 09:35:10;;;;;;;21.23;10.27;;;;;;;;;;4831668;29;20049;-75
2021/12/08 09:37:40;;;;;;;24.42;14.32;;;;;;;;;;4835065;29;20086;-75
2021/12/08 09:40:16;;;;;;;38.95;24.10;;;;;;;;;;4825578;29;20045;-76
2021/12/08 09:42:51;;;;;;;48.80;35.33;;;;;;;;;;4832503;29;20378;-76
2021/12/08 09:45:20;;;;;;;37.30;28.63;;;;;;;;;;4839482;29;20063;-75
2021/12/08 09:47:46;;;;;;;31.83;21.83;;;;;;;;;;4837639;29;20045;-75
2021/12/08 09:50:13;;;;;;;39.17;26.30;;;;;;;;;;4835404;29;20087;-75
2021/12/08 09:52:41;;;;;;;41.03;27.73;;;;;;;;;;4840407;29;20430;-76
2021/12/08 09:55:10;;;;;;;66.63;46.13;;;;;;;;;;4837802;29;20115;-75
2021/12/08 09:57:36;;;;;;;48.15;37.17;;;;;;;;;;4838977;29;20041;-75
2021/12/08 10:00:05;;;;;;;39.75;29.58;;;;;;;;;;4820036;29;20142;-75
2021/12/08 10:02:34;;;;;;;41.60;24.40;;;;;;;;;;4838270;29;20044;-75
2021/12/08 10:05:03;;;;;;;32.17;22.90;;;;;;;;;;4834686;29;20054;-75
2021/12/08 10:07:29;;;;;;;39.45;24.77;;;;;;;;;;4830520;29;20041;-75
2021/12/08 10:09:56;;;;;;;43.72;25.50;;;;;;;;;;4825521;29;20397;-75
2021/12/08 10:12:22;;;;;;;45.58;26.02;;;;;;;;;;4831079;29;20435;-76
2021/12/08 10:14:50;;;;;;;44.90;25.88;;;;;;;;;;4832525;29;20555;-76
2021/12/08 10:17:17;;;;;;;47.85;25.98;;;;;;;;;;4833009;29;20039;-75
2021/12/08 10:19:43;;;;;;;37.70;22.25;;;;;;;;;;4853954;24;20500;-76
2021/12/08 10:22:17;;;;;;;30.80;20.88;;;;;;;;;;4845137;29;20034;-75
2021/12/08 10:24:43;;;;;;;32.00;21.95;;;;;;;;;;4845570;29;20047;-75
2021/12/08 10:27:10;;;;;;;78.18;44.88;;;;;;;;;;4858136;29;20030;-75
2021/12/08 10:29:36;;;;;;;55.58;35.03;;;;;;;;;;4851824;29;20084;-75
2021/12/08 10:32:03;;;;;;;41.53;29.00;;;;;;;;;;4851210;29;20033;-76
2021/12/08 10:34:42;;;;;;;50.50;28.38;;;;;;;;;;4853077;29;20042;-75
2021/12/08 10:37:10;;;;;;;32.90;21.75;;;;;;;;;;4842597;29;20040;-75
2021/12/08 10:39:41;;;;;;;46.47;29.17;;;;;;;;;;4845952;29;20084;-75
2021/12/08 10:42:09;;;;;;;34.38;23.80;;;;;;;;;;4840428;29;20366;-75
2021/12/08 10:44:50;;;;;;;34.45;24.83;;;;;;;;;;4839575;29;20045;-75
2021/12/08 10:47:36;;;;;;;32.40;21.50;;;;;;;;;;4846920;29;20136;-75
2021/12/08 10:56:24;;;;;;;49.92;32.85;;;;;;;;;;4847115;29;20137;-75
2021/12/08 11:02:06;;;;;;;29.90;20.75;;;;;;;;;;4856803;29;20049;-75
2021/12/08 11:05:03;;;;;;;30.02;18.23;;;;;;;;;;4849188;29;20090;-75
2021/12/08 11:07:30;;;;;;;32.42;20.05;;;;;;;;;;4841080;29;20056;-75
2021/12/08 11:10:25;;;;;;;22.92;15.73;;;;;;;;;;4843441;29;20037;-76
2021/12/08 11:12:59;;;;;;;57.05;33.53;;;;;;;;;;4838181;29;20057;-76
2021/12/08 11:15:34;;;;;;;35.80;21.70;;;;;;;;;;4847332;29;20634;-76
2021/12/08 11:18:26;;;;;;;39.78;28.00;;;;;;;;;;4839583;29;20041;-75
2021/12/08 11:21:23;;;;;;;37.85;26.92;;;;;;;;;;4838390;29;20053;-76
2021/12/08 11:24:00;;;;;;;48.88;32.50;;;;;;;;;;4830602;29;20083;-76
2021/12/08 11:26:37;;;;;;;29.50;19.25;;;;;;;;;;4827439;29;20577;-75
2021/12/08 11:29:09;;;;;;;26.00;18.08;;;;;;;;;;4820882;29;20038;-76
2021/12/08 11:35:07;;;;;;;20.05;14.90;;;;;;;;;;4837826;29;20045;-75
2021/12/08 11:38:05;;;;;;;17.73;9.02;;;;;;;;;;4815611;29;20056;-75
2021/12/08 11:40:42;;;;;;;24.58;14.38;;;;;;;;;;4833191;29;20134;-75
2021/12/08 11:43:27;;;;;;;23.17;15.35;;;;;;;;;;4820494;29;20078;-75
2021/12/08 11:45:53;;;;;;;21.20;13.65;;;;;;;;;;4820695;29;20046;-75
2021/12/08 11:48:24;;;;;;;16.00;8.93;;;;;;;;;;4828470;29;20037;-75
2021/12/08 11:51:06;;;;;;;15.13;9.05;;;;;;;;;;4836435;29;20034;-75
2021/12/08 11:53:32;;;;;;;27.23;12.52;;;;;;;;;;4820338;29;20039;-76
2021/12/08 11:55:59;;;;;;;20.63;10.02;;;;;;;;;;4821025;29;20121;-75
2021/12/08 11:58:25;;;;;;;18.05;10.95;;;;;;;;;;4821285;29;20031;-75
2021/12/08 12:00:52;;;;;;;16.23;8.13;;;;;;;;;;4819334;29;20053;-75
2021/12/08 12:03:19;;;;;;;18.23;7.25;;;;;;;;;;4829908;29;20042;-76
2021/12/08 12:05:47;;;;;;;14.30;6.32;;;;;;;;;;4820236;29;20066;-76
2021/12/08 12:08:16;;;;;;;11.05;6.05;;;;;;;;;;4807686;29;20847;-76
2021/12/08 12:10:43;;;;;;;14.57;7.60;;;;;;;;;;4824133;29;20042;-76
2021/12/08 12:13:10;;;;;;;12.95;6.70;;;;;;;;;;4822035;29;20038;-76
2021/12/08 12:15:38;;;;;;;17.85;8.80;;;;;;;;;;4831874;29;20077;-75
2021/12/08 12:18:04;;;;;;;14.05;7.07;;;;;;;;;;4831355;29;20065;-76
2021/12/08 12:20:39;;;;;;;18.42;8.25;;;;;;;;;;4837398;29;20053;-76
2021/12/08 12:23:20;;;;;;;23.67;8.73;;;;;;;;;;4861822;29;20030;-77
2021/12/08 12:26:06;;;;;;;17.10;7.78;;;;;;;;;;4848672;29;20786;-76
2021/12/08 12:28:32;;;;;;;19.92;10.15;;;;;;;;;;4859176;29;20785;-75
2021/12/08 12:30:58;;;;;;;27.20;13.73;;;;;;;;;;4859011;29;20041;-75
2021/12/08 12:33:24;;;;;;;34.92;23.42;;;;;;;;;;4851078;29;20029;-76
2021/12/08 12:35:51;;;;;;;28.80;16.08;;;;;;;;;;4847538;29;20041;-75
2021/12/08 12:38:18;;;;;;;32.42;16.05;;;;;;;;;;4842082;29;20127;-76
2021/12/08 12:40:51;;;;;;;24.92;14.68;;;;;;;;;;4841571;29;20085;-76
2021/12/08 12:43:27;;;;;;;48.80;28.65;;;;;;;;;;4851704;29;20395;-76
2021/12/08 12:46:23;;;;;;;30.27;19.17;;;;;;;;;;4841361;29;20040;-76
2021/12/08 12:48:52;;;;;;;23.30;14.07;;;;;;;;;;4836982;29;20065;-76
2021/12/08 12:51:21;;;;;;;25.02;13.65;;;;;;;;;;4851112;29;20434;-75
2021/12/08 12:53:50;;;;;;;25.40;15.85;;;;;;;;;;4841155;29;20599;-76
2021/12/08 12:56:16;;;;;;;24.38;16.02;;;;;;;;;;4847488;29;20909;-75
2021/12/08 12:58:46;;;;;;;29.45;22.20;;;;;;;;;;4847161;29;20101;-75
2021/12/08 13:01:14;;;;;;;44.95;30.45;;;;;;;;;;4842407;29;20465;-75
2021/12/08 13:03:41;;;;;;;53.05;33.97;;;;;;;;;;4841089;29;20054;-76
2021/12/08 13:06:07;;;;;;;46.80;31.70;;;;;;;;;;4856706;29;20053;-76
2021/12/08 13:08:36;;;;;;;29.42;21.98;;;;;;;;;;4846098;29;20369;-76
2021/12/08 13:11:11;;;;;;;30.40;20.83;;;;;;;;;;4841184;29;20090;-76
2021/12/08 13:13:52;;;;;;;26.95;17.83;;;;;;;;;;4848960;29;20034;-75
2021/12/08 13:16:26;;;;;;;27.08;19.20;;;;;;;;;;4852944;29;20041;-76
2021/12/08 13:19:00;;;;;;;23.63;16.10;;;;;;;;;;4841331;29;20037;-76
2021/12/08 13:21:59;;;;;;;32.22;18.40;;;;;;;;;;4841546;29;20068;-75
2021/12/08 13:24:41;;;;;;;29.67;18.63;;;;;;;;;;4840188;29;20102;-76
2021/12/08 13:27:09;;;;;;;35.42;19.70;;;;;;;;;;4841743;29;20033;-75
2021/12/08 13:29:36;;;;;;;46.63;25.92;;;;;;;;;;4844694;29;20608;-76
2021/12/08 13:32:11;;;;;;;60.13;36.97;;;;;;;;;;4846719;29;20718;-76
2021/12/08 13:34:37;;;;;;;44.92;26.88;;;;;;;;;;4841362;29;20050;-75
2021/12/08 13:37:20;;;;;;;33.30;21.67;;;;;;;;;;4843792;29;20520;-76
2021/12/08 13:39:48;;;;;;;23.10;15.65;;;;;;;;;;4851240;29;20458;-76
2021/12/08 13:42:16;;;;;;;24.85;16.42;;;;;;;;;;4846827;29;20034;-75
2021/12/08 13:44:55;;;;;;;21.88;14.02;;;;;;;;;;4854353;29;20049;-75
2021/12/08 13:47:27;;;;;;;41.20;24.75;;;;;;;;;;4849674;29;20060;-75
2021/12/08 13:49:56;;;;;;;67.30;40.72;;;;;;;;;;4846566;29;20121;-75
2021/12/08 13:52:26;;;;;;;56.65;35.90;;;;;;;;;;4851279;29;20362;-75
2021/12/08 13:54:57;;;;;;;32.45;18.15;;;;;;;;;;4852585;29;20050;-76
2021/12/08 13:57:26;;;;;;;33.83;15.60;;;;;;;;;;4841477;29;20044;-75
2021/12/08 13:59:55;;;;;;;71.63;40.50;;;;;;;;;;4844555;29;20049;-75
2021/12/08 14:02:23;;;;;;;59.15;26.20;;;;;;;;;;4843789;29;20037;-75
2021/12/08 14:04:57;;;;;;;48.00;27.65;;;;;;;;;;4851024;29;20048;-75
2021/12/08 14:07:23;;;;;;;32.22;17.15;;;;;;;;;;4841739;29;20113;-76
2021/12/08 14:09:49;;;;;;;25.52;14.70;;;;;;;;;;4851114;29;20577;-75
2021/12/08 14:12:15;;;;;;;30.58;18.10;;;;;;;;;;4848392;29;20029;-75
2021/12/08 14:14:53;;;;;;;40.17;26.63;;;;;;;;;;4850443;29;20124;-75
2021/12/08 14:17:26;;;;;;;40.60;24.92;;;;;;;;;;4848407;29;20120;-76
2021/12/08 14:19:52;;;;;;;30.40;20.15;;;;;;;;;;4845017;29;20142;-75
2021/12/08 14:22:18;;;;;;;30.05;16.85;;;;;;;;;;4843501;29;20062;-75
2021/12/08 14:24:44;;;;;;;32.45;18.88;;;;;;;;;;4854049;29;20121;-75
2021/12/08 14:27:10;;;;;;;29.48;19.67;;;;;;;;;;4849810;29;20071;-76
2021/12/08 14:29:36;;;;;;;30.77;20.90;;;;;;;;;;4849784;29;20050;-76
2021/12/08 14:32:03;;;;;;;35.50;21.92;;;;;;;;;;4849424;29;20029;-75
2021/12/08 14:34:30;;;;;;;26.65;20.55;;;;;;;;;;4847468;29;20387;-75
2021/12/08 14:37:15;;;;;;;28.60;19.55;;;;;;;;;;4839816;29;20065;-76
2021/12/08 14:39:45;;;;;;;39.45;22.92;;;;;;;;;;4849563;29;20045;-75
2021/12/08 14:42:11;;;;;;;29.73;20.40;;;;;;;;;;4844346;29;20049;-75
2021/12/08 14:44:41;;;;;;;42.33;29.20;;;;;;;;;;4847267;29;20056;-76
2021/12/08 14:47:09;;;;;;;36.80;24.42;;;;;;;;;;4850307;29;20025;-75
2021/12/08 14:49:39;;;;;;;32.40;20.45;;;;;;;;;;4845727;29;20106;-75
2021/12/08 14:52:07;;;;;;;32.45;21.40;;;;;;;;;;4849588;29;20033;-75
2021/12/08 14:54:38;;;;;;;30.60;21.73;;;;;;;;;;4844165;29;20047;-75
2021/12/08 14:57:04;;;;;;;31.88;22.23;;;;;;;;;;4854693;29;20033;-76
2021/12/08 14:59:30;;;;;;;35.85;25.67;;;;;;;;;;4845938;29;20095;-75
2021/12/08 15:01:56;;;;;;;29.48;23.08;;;;;;;;;;4846329;29;20117;-75
2021/12/08 15:04:22;;;;;;;32.92;21.92;;;;;;;;;;4845855;29;20056;-75
2021/12/08 15:06:54;;;;;;;35.60;22.75;;;;;;;;;;4839041;29;20041;-76
2021/12/08 15:09:20;;;;;;;37.22;26.83;;;;;;;;;;4845700;29;20116;-75
2021/12/08 15:11:46;;;;;;;32.47;22.15;;;;;;;;;;4849145;29;20061;-76
2021/12/08 15:14:16;;;;;;;32.60;25.42;;;;;;;;;;4850494;29;20033;-76
2021/12/08 15:16:46;;;;;;;33.75;20.80;;;;;;;;;;4853891;29;20141;-75
2021/12/08 15:19:13;;;;;;;35.60;27.08;;;;;;;;;;4845881;29;20044;-75
2021/12/08 15:21:40;;;;;;;35.70;28.10;;;;;;;;;;4840937;29;20468;-76
2021/12/08 15:24:08;;;;;;;54.70;34.83;;;;;;;;;;4842700;29;20032;-75
2021/12/08 15:26:34;;;;;;;39.22;26.95;;;;;;;;;;4846262;29;20191;-75
2021/12/08 15:29:01;;;;;;;35.92;22.45;;;;;;;;;;4845778;29;20102;-75
2021/12/08 15:31:32;;;;;;;53.95;31.88;;;;;;;;;;4848313;29;20045;-75
2021/12/08 15:33:58;;;;;;;34.85;22.95;;;;;;;;;;4849813;29;20033;-76
2021/12/08 15:36:29;;;;;;;37.58;24.20;;;;;;;;;;4844391;29;21024;-75